createdAt,value
2018-09-23T00:00:33.393Z,52.90
2018-09-23T00:01:35.566Z,53.40
2018-09-23T00:02:37.994Z,53.10
2018-09-23T00:03:40.297Z,53.20
2018-09-23T00:04:42.458Z,53.20
2018-09-23T00:05:44.609Z,53.40
2018-09-23T00:06:46.766Z,54.00
2018-09-23T00:07:48.969Z,53.70
2018-09-23T00:08:51.120Z,53.80
2018-09-23T00:09:53.271Z,54.10
2018-09-23T00:10:55.680Z,54.20
2018-09-23T00:11:58.329Z,55.00
2018-09-23T00:13:00.468Z,55.70
2018-09-23T00:14:02.617Z,56.00
2018-09-23T00:15:04.769Z,57.00
2018-09-23T00:16:07.146Z,56.60
2018-09-23T00:17:09.298Z,57.40
2018-09-23T00:18:11.474Z,57.70
2018-09-23T00:19:13.875Z,57.90
2018-09-23T00:20:16.062Z,58.70
2018-09-23T00:21:18.193Z,58.70
2018-09-23T00:22:20.421Z,59.30
2018-09-23T00:23:22.494Z,59.50
2018-09-23T00:24:24.616Z,59.40
2018-09-23T00:25:26.734Z,60.50
2018-09-23T00:26:29.374Z,60.50
2018-09-23T00:27:31.544Z,60.20
2018-09-23T00:28:33.717Z,60.50
2018-09-23T00:29:41.466Z,60.90
2018-09-23T00:30:43.622Z,60.90
2018-09-23T00:31:45.782Z,60.50
2018-09-23T00:32:47.955Z,60.70
2018-09-23T00:33:50.098Z,60.80
2018-09-23T00:34:52.272Z,60.40
2018-09-23T00:35:54.397Z,61.70
2018-09-23T00:36:56.570Z,61.90
2018-09-23T00:37:58.702Z,61.60
2018-09-23T00:39:00.825Z,61.90
2018-09-23T00:40:03.212Z,62.00
2018-09-23T00:41:05.362Z,62.80
2018-09-23T00:42:07.514Z,63.50
2018-09-23T00:43:09.693Z,63.60
2018-09-23T00:44:11.804Z,64.50
2018-09-23T00:45:14.029Z,64.80
2018-09-23T00:46:16.163Z,64.60
2018-09-23T00:47:18.322Z,65.00
2018-09-23T00:48:20.466Z,65.00
2018-09-23T00:49:22.648Z,65.20
2018-09-23T00:50:24.805Z,66.10
2018-09-23T00:51:26.936Z,65.60
2018-09-23T00:52:29.066Z,65.40
2018-09-23T00:53:31.186Z,65.30
2018-09-23T00:54:33.335Z,65.40
2018-09-23T00:55:35.522Z,64.60
2018-09-23T00:56:38.072Z,65.00
2018-09-23T00:57:40.229Z,65.30
2018-09-23T00:58:42.814Z,65.30
2018-09-23T00:59:45.004Z,65.60
2018-09-23T01:00:47.165Z,66.00
2018-09-23T01:01:49.296Z,65.90
2018-09-23T01:02:51.419Z,65.70
2018-09-23T01:03:53.577Z,67.10
2018-09-23T01:04:56.033Z,66.60
2018-09-23T01:05:58.173Z,66.60
2018-09-23T01:07:00.330Z,66.60
2018-09-23T01:08:02.501Z,66.90
2018-09-23T01:09:06.625Z,66.80
2018-09-23T01:10:14.927Z,67.90
2018-09-23T01:11:17.089Z,67.10
2018-09-23T01:12:19.253Z,68.00
2018-09-23T01:13:21.916Z,67.80
2018-09-23T01:14:24.049Z,67.90
2018-09-23T01:15:26.170Z,67.50
2018-09-23T01:16:28.339Z,66.80
2018-09-23T01:17:30.477Z,67.90
2018-09-23T01:18:32.594Z,67.80
2018-09-23T01:19:34.753Z,67.10
2018-09-23T01:20:37.286Z,66.10
2018-09-23T01:21:39.549Z,66.20
2018-09-23T01:22:41.690Z,67.40
2018-09-23T01:23:44.099Z,67.90
2018-09-23T01:24:46.428Z,67.00
2018-09-23T01:25:48.816Z,66.60
2018-09-23T01:26:51.010Z,67.00
2018-09-23T01:27:53.413Z,67.90
2018-09-23T01:28:55.529Z,68.10
2018-09-23T01:29:57.938Z,67.90
2018-09-23T01:31:00.133Z,67.90
2018-09-23T01:32:02.276Z,68.70
2018-09-23T01:33:04.421Z,69.00
2018-09-23T01:34:06.572Z,68.20
2018-09-23T01:35:08.733Z,68.10
2018-09-23T01:36:10.879Z,67.80
2018-09-23T01:37:13.304Z,69.10
2018-09-23T01:38:15.430Z,69.40
2018-09-23T01:39:17.594Z,69.40
2018-09-23T01:40:19.723Z,69.50
2018-09-23T01:41:21.881Z,69.50
2018-09-23T01:42:24.036Z,68.20
2018-09-23T01:43:26.149Z,68.70
2018-09-23T01:44:28.257Z,69.10
2018-09-23T01:45:30.382Z,69.40
2018-09-23T01:46:32.589Z,69.20
2018-09-23T01:47:34.724Z,69.50
2018-09-23T01:48:36.867Z,70.20
2018-09-23T01:49:39.354Z,69.90
2018-09-23T01:50:41.526Z,70.20
2018-09-23T01:51:43.702Z,69.90
2018-09-23T01:52:45.835Z,69.80
2018-09-23T01:53:48.197Z,69.50
2018-09-23T01:54:50.607Z,69.10
2018-09-23T01:55:52.754Z,69.80
2018-09-23T01:56:55.113Z,70.00
2018-09-23T01:57:57.561Z,70.60
2018-09-23T01:58:59.685Z,70.80
2018-09-23T02:00:01.807Z,71.00
2018-09-23T02:01:03.981Z,70.30
2018-09-23T02:02:06.389Z,70.20
2018-09-23T02:03:08.532Z,70.60
2018-09-23T02:04:10.662Z,70.70
2018-09-23T02:05:12.808Z,71.50
2018-09-23T02:06:14.973Z,71.20
2018-09-23T02:07:17.106Z,71.00
2018-09-23T02:08:19.225Z,70.70
2018-09-23T02:09:21.370Z,71.10
2018-09-23T02:10:23.495Z,71.50
2018-09-23T02:11:25.618Z,71.10
2018-09-23T02:12:27.761Z,71.80
2018-09-23T02:13:29.889Z,71.20
2018-09-23T02:14:32.017Z,71.60
2018-09-23T02:15:34.366Z,71.90
2018-09-23T02:16:36.541Z,71.90
2018-09-23T02:17:38.697Z,72.00
2018-09-23T02:18:40.803Z,71.20
2018-09-23T02:19:43.213Z,70.00
2018-09-23T02:20:45.352Z,70.80
2018-09-23T02:21:47.559Z,71.00
2018-09-23T02:22:49.791Z,70.50
2018-09-23T02:23:51.923Z,70.80
2018-09-23T02:24:54.055Z,71.30
2018-09-23T02:25:56.169Z,71.50
2018-09-23T02:26:58.318Z,71.60
2018-09-23T02:28:00.450Z,72.00
2018-09-23T02:29:02.573Z,71.20
2018-09-23T02:30:05.120Z,70.90
2018-09-23T02:31:07.323Z,70.70
2018-09-23T02:32:09.505Z,70.90
2018-09-23T02:33:11.651Z,71.20
2018-09-23T02:34:13.875Z,71.40
2018-09-23T02:35:15.992Z,71.20
2018-09-23T02:36:18.131Z,70.80
2018-09-23T02:37:20.276Z,70.90
2018-09-23T02:38:22.440Z,71.90
2018-09-23T02:39:24.566Z,72.20
2018-09-23T02:40:26.689Z,72.20
2018-09-23T02:41:28.817Z,72.00
2018-09-23T02:42:30.955Z,72.20
2018-09-23T02:43:33.129Z,72.20
2018-09-23T02:44:35.270Z,72.20
2018-09-23T02:45:37.409Z,72.30
2018-09-23T02:46:39.556Z,72.30
2018-09-23T02:47:41.710Z,72.30
2018-09-23T02:48:43.903Z,72.30
2018-09-23T02:49:46.094Z,72.30
2018-09-23T02:50:48.252Z,72.40
2018-09-23T02:51:50.581Z,72.30
2018-09-23T02:52:53.178Z,72.20
2018-09-23T02:53:55.642Z,72.20
2018-09-23T02:54:58.087Z,71.90
2018-09-23T02:56:00.242Z,72.00
2018-09-23T02:57:02.372Z,72.40
2018-09-23T02:58:04.781Z,72.40
2018-09-23T02:59:06.927Z,73.20
2018-09-23T03:00:09.130Z,72.40
2018-09-23T03:01:11.257Z,71.90
2018-09-23T03:02:13.411Z,71.70
2018-09-23T03:03:15.615Z,71.40
2018-09-23T03:04:17.980Z,71.90
2018-09-23T03:05:20.127Z,72.20
2018-09-23T03:06:28.994Z,72.50
2018-09-23T03:07:31.445Z,72.50
2018-09-23T03:08:33.569Z,72.40
2018-09-23T03:09:35.706Z,72.90
2018-09-23T03:10:37.898Z,72.40
2018-09-23T03:11:40.041Z,72.40
2018-09-23T03:12:42.199Z,72.40
2018-09-23T03:13:44.385Z,72.40
2018-09-23T03:14:46.548Z,72.90
2018-09-23T03:15:48.826Z,73.30
2018-09-23T03:16:50.988Z,73.20
2018-09-23T03:17:53.267Z,72.80
2018-09-23T03:18:55.414Z,72.70
2018-09-23T03:19:57.789Z,72.80
2018-09-23T03:20:59.933Z,73.10
2018-09-23T03:22:02.284Z,73.20
2018-09-23T03:23:04.432Z,72.90
2018-09-23T03:24:06.592Z,73.20
2018-09-23T03:25:08.770Z,73.50
2018-09-23T03:26:10.906Z,73.30
2018-09-23T03:27:13.052Z,73.80
2018-09-23T03:28:15.208Z,73.60
2018-09-23T03:29:17.339Z,73.90
2018-09-23T03:30:19.465Z,74.10
2018-09-23T03:31:21.594Z,74.40
2018-09-23T03:32:24.028Z,74.10
2018-09-23T03:33:26.157Z,74.10
2018-09-23T03:34:28.625Z,74.10
2018-09-23T03:35:30.751Z,73.70
2018-09-23T03:36:32.891Z,74.10
2018-09-23T03:37:35.022Z,73.90
2018-09-23T03:38:37.418Z,73.90
2018-09-23T03:39:39.777Z,73.60
2018-09-23T03:40:41.985Z,74.10
2018-09-23T03:41:44.128Z,73.90
2018-09-23T03:42:46.361Z,73.90
2018-09-23T03:43:48.501Z,73.80
2018-09-23T03:44:50.657Z,74.30
2018-09-23T03:45:53.049Z,73.80
2018-09-23T03:46:55.257Z,74.00
2018-09-23T03:48:01.826Z,74.40
2018-09-23T03:49:04.023Z,74.30
2018-09-23T03:50:06.188Z,74.50
2018-09-23T03:51:08.366Z,74.60
2018-09-23T03:52:10.497Z,74.30
2018-09-23T03:53:12.626Z,74.50
2018-09-23T03:54:15.494Z,74.90
2018-09-23T03:55:17.625Z,74.20
2018-09-23T03:56:19.786Z,73.90
2018-09-23T03:57:21.925Z,74.40
2018-09-23T03:58:24.051Z,74.70
2018-09-23T03:59:26.417Z,74.70
2018-09-23T04:00:28.563Z,74.50
2018-09-23T04:01:30.721Z,75.00
2018-09-23T04:02:33.266Z,75.10
2018-09-23T04:03:35.434Z,74.40
2018-09-23T04:04:37.985Z,74.70
2018-09-23T04:05:40.126Z,74.80
2018-09-23T04:06:42.362Z,74.80
2018-09-23T04:07:44.490Z,74.70
2018-09-23T04:08:46.680Z,74.70
2018-09-23T04:09:48.805Z,74.70
2018-09-23T04:10:50.944Z,75.00
2018-09-23T04:11:53.091Z,74.80
2018-09-23T04:12:55.219Z,74.80
2018-09-23T04:13:57.526Z,75.40
2018-09-23T04:14:59.690Z,75.20
2018-09-23T04:16:02.101Z,75.20
2018-09-23T04:17:04.601Z,75.20
2018-09-23T04:18:06.867Z,75.20
2018-09-23T04:19:09.082Z,75.00
2018-09-23T04:20:11.240Z,75.90
2018-09-23T04:21:13.658Z,75.80
2018-09-23T04:22:15.816Z,75.40
2018-09-23T04:23:18.063Z,75.80
2018-09-23T04:24:20.230Z,76.40
2018-09-23T04:25:22.494Z,76.00
2018-09-23T04:26:24.650Z,75.70
2018-09-23T04:27:26.805Z,75.20
2018-09-23T04:28:28.966Z,75.30
2018-09-23T04:29:31.176Z,75.30
2018-09-23T04:30:33.330Z,75.10
2018-09-23T04:31:35.498Z,75.00
2018-09-23T04:32:37.650Z,75.20
2018-09-23T04:33:39.811Z,75.10
2018-09-23T04:34:41.962Z,75.00
2018-09-23T04:35:44.122Z,75.50
2018-09-23T04:36:46.264Z,75.40
2018-09-23T04:37:48.419Z,75.50
2018-09-23T04:38:50.574Z,75.30
2018-09-23T04:39:52.995Z,75.20
2018-09-23T04:40:55.150Z,75.30
2018-09-23T04:41:57.343Z,75.30
2018-09-23T04:42:59.692Z,75.40
2018-09-23T04:44:02.161Z,75.30
2018-09-23T04:45:04.370Z,75.30
2018-09-23T04:46:06.495Z,74.70
2018-09-23T04:47:08.688Z,74.80
2018-09-23T04:48:10.838Z,74.90
2018-09-23T04:49:12.998Z,74.80
2018-09-23T04:50:15.160Z,74.80
2018-09-23T04:51:17.312Z,75.10
2018-09-23T04:52:19.434Z,75.00
2018-09-23T04:53:21.856Z,74.90
2018-09-23T04:54:24.001Z,75.30
2018-09-23T04:55:26.183Z,75.10
2018-09-23T04:56:28.318Z,75.10
2018-09-23T04:57:30.477Z,75.30
2018-09-23T04:58:32.638Z,75.90
2018-09-23T04:59:34.988Z,75.20
2018-09-23T05:00:37.138Z,75.40
2018-09-23T05:01:39.278Z,75.00
2018-09-23T05:02:41.423Z,75.20
2018-09-23T05:03:43.549Z,75.00
2018-09-23T05:04:45.737Z,74.80
2018-09-23T05:05:47.910Z,74.80
2018-09-23T05:06:50.054Z,75.20
2018-09-23T05:07:52.477Z,75.00
2018-09-23T05:08:54.617Z,75.10
2018-09-23T05:09:56.746Z,74.50
2018-09-23T05:10:58.886Z,74.90
2018-09-23T05:12:01.203Z,74.60
2018-09-23T05:13:03.365Z,74.60
2018-09-23T05:14:05.893Z,74.70
2018-09-23T05:15:08.305Z,74.10
2018-09-23T05:16:10.447Z,74.70
2018-09-23T05:17:12.628Z,74.70
2018-09-23T05:18:14.842Z,74.80
2018-09-23T05:19:16.986Z,74.60
2018-09-23T05:20:19.521Z,74.70
2018-09-23T05:21:22.049Z,74.60
2018-09-23T05:22:24.558Z,74.50
2018-09-23T05:23:26.734Z,74.10
2018-09-23T05:24:29.126Z,74.40
2018-09-23T05:25:31.289Z,74.50
2018-09-23T05:26:33.423Z,74.10
2018-09-23T05:27:35.550Z,74.30
2018-09-23T05:28:37.933Z,74.30
2018-09-23T05:29:40.053Z,73.50
2018-09-23T05:30:42.192Z,74.00
2018-09-23T05:31:44.362Z,74.30
2018-09-23T05:32:46.513Z,74.40
2018-09-23T05:33:48.669Z,73.70
2018-09-23T05:34:50.817Z,74.40
2018-09-23T05:35:53.004Z,74.40
2018-09-23T05:36:55.157Z,73.60
2018-09-23T05:37:57.293Z,73.60
2018-09-23T05:38:59.433Z,74.20
2018-09-23T05:40:02.008Z,73.70
2018-09-23T05:41:04.421Z,73.70
2018-09-23T05:42:06.612Z,73.70
2018-09-23T05:43:08.872Z,73.70
2018-09-23T05:44:10.997Z,73.80
2018-09-23T05:45:13.155Z,73.80
2018-09-23T05:46:15.339Z,74.10
2018-09-23T05:47:17.506Z,74.20
2018-09-23T05:48:19.645Z,74.40
2018-09-23T05:49:28.498Z,74.20
2018-09-23T05:50:30.674Z,74.00
2018-09-23T05:51:33.202Z,73.90
2018-09-23T05:52:35.374Z,73.40
2018-09-23T05:53:37.560Z,73.90
2018-09-23T05:54:39.729Z,73.90
2018-09-23T05:55:41.891Z,73.90
2018-09-23T05:56:44.067Z,73.90
2018-09-23T05:57:46.258Z,73.90
2018-09-23T05:58:48.430Z,74.00
2018-09-23T05:59:50.805Z,74.00
2018-09-23T06:00:54.274Z,74.00
2018-09-23T06:01:56.475Z,74.30
2018-09-23T06:02:58.919Z,74.10
2018-09-23T06:04:01.096Z,74.50
2018-09-23T06:05:03.278Z,75.10
2018-09-23T06:06:05.598Z,75.00
2018-09-23T06:07:07.783Z,75.00
2018-09-23T06:08:09.930Z,74.40
2018-09-23T06:09:12.055Z,74.10
2018-09-23T06:10:14.246Z,74.10
2018-09-23T06:11:16.464Z,74.10
2018-09-23T06:12:18.606Z,74.10
2018-09-23T06:13:20.982Z,74.10
2018-09-23T06:14:23.143Z,74.10
2018-09-23T06:15:25.281Z,74.00
2018-09-23T06:16:27.414Z,73.70
2018-09-23T06:17:29.558Z,74.00
2018-09-23T06:18:32.024Z,73.80
2018-09-23T06:19:34.086Z,73.50
2018-09-23T06:20:36.291Z,73.40
2018-09-23T06:21:38.418Z,73.60
2018-09-23T06:22:40.554Z,73.60
2018-09-23T06:23:42.686Z,74.10
2018-09-23T06:24:44.820Z,73.90
2018-09-23T06:25:47.281Z,74.00
2018-09-23T06:26:49.444Z,73.90
2018-09-23T06:27:51.581Z,74.20
2018-09-23T06:28:53.705Z,74.50
2018-09-23T06:29:55.841Z,73.80
2018-09-23T06:30:57.969Z,73.90
2018-09-23T06:32:00.110Z,73.90
2018-09-23T06:33:02.280Z,73.70
2018-09-23T06:34:04.705Z,73.60
2018-09-23T06:35:06.878Z,73.30
2018-09-23T06:36:09.013Z,73.30
2018-09-23T06:37:11.212Z,73.50
2018-09-23T06:38:13.343Z,73.20
2018-09-23T06:39:15.497Z,73.00
2018-09-23T06:40:17.702Z,73.00
2018-09-23T06:41:19.854Z,73.40
2018-09-23T06:42:22.043Z,73.50
2018-09-23T06:43:24.200Z,73.60
2018-09-23T06:44:26.414Z,73.30
2018-09-23T06:45:28.635Z,73.90
2018-09-23T06:46:31.035Z,73.10
2018-09-23T06:47:33.477Z,72.90
2018-09-23T06:48:35.651Z,72.80
2018-09-23T06:49:37.798Z,73.10
2018-09-23T06:50:39.967Z,72.80
2018-09-23T06:51:42.139Z,72.60
2018-09-23T06:52:44.406Z,72.60
2018-09-23T06:53:46.616Z,72.40
2018-09-23T06:54:48.777Z,72.30
2018-09-23T06:55:50.966Z,72.30
2018-09-23T06:56:53.233Z,72.40
2018-09-23T06:57:55.372Z,72.20
2018-09-23T06:58:57.630Z,72.20
2018-09-23T06:59:59.849Z,72.00
2018-09-23T07:01:02.006Z,71.90
2018-09-23T07:02:04.164Z,71.60
2018-09-23T07:03:06.651Z,71.60
2018-09-23T07:04:08.853Z,71.60
2018-09-23T07:05:11.302Z,71.70
2018-09-23T07:06:13.506Z,71.40
2018-09-23T07:07:15.697Z,71.40
2018-09-23T07:08:17.875Z,71.10
2018-09-23T07:09:20.030Z,71.20
2018-09-23T07:10:22.195Z,70.80
2018-09-23T07:11:24.296Z,70.80
2018-09-23T07:12:26.780Z,70.80
2018-09-23T07:13:28.925Z,70.80
2018-09-23T07:14:31.122Z,70.80
2018-09-23T07:15:33.286Z,70.90
2018-09-23T07:16:35.506Z,70.30
2018-09-23T07:17:38.015Z,70.40
2018-09-23T07:18:40.218Z,70.10
2018-09-23T07:19:42.398Z,70.00
2018-09-23T07:20:44.589Z,69.80
2018-09-23T07:21:46.733Z,69.60
2018-09-23T07:22:48.921Z,69.50
2018-09-23T07:23:51.252Z,69.20
2018-09-23T07:24:53.278Z,68.80
2018-09-23T07:25:55.590Z,69.20
2018-09-23T07:26:57.721Z,69.50
2018-09-23T07:27:59.873Z,68.50
2018-09-23T07:29:02.093Z,68.70
2018-09-23T07:30:04.563Z,68.70
2018-09-23T07:31:07.574Z,68.50
2018-09-23T07:32:09.974Z,68.40
2018-09-23T07:33:12.161Z,68.00
2018-09-23T07:34:14.345Z,68.20
2018-09-23T07:35:16.503Z,67.90
2018-09-23T07:36:18.642Z,68.10
2018-09-23T07:37:20.831Z,67.50
2018-09-23T07:38:23.105Z,67.40
2018-09-23T07:39:25.508Z,67.40
2018-09-23T07:40:27.993Z,67.10
2018-09-23T07:41:30.121Z,66.90
2018-09-23T07:42:32.245Z,67.00
2018-09-23T07:43:34.417Z,68.00
2018-09-23T07:44:36.650Z,66.90
2018-09-23T07:45:39.555Z,67.00
2018-09-23T07:46:41.844Z,67.10
2018-09-23T07:47:43.992Z,67.00
2018-09-23T07:48:46.182Z,67.20
2018-09-23T07:49:48.326Z,67.10
2018-09-23T07:50:50.470Z,66.30
2018-09-23T07:51:52.638Z,66.70
2018-09-23T07:52:54.769Z,66.50
2018-09-23T07:53:56.924Z,66.60
2018-09-23T07:54:59.053Z,66.80
2018-09-23T07:56:01.483Z,66.70
2018-09-23T07:57:03.574Z,66.40
2018-09-23T07:58:05.705Z,66.60
2018-09-23T07:59:08.068Z,66.10
2018-09-23T08:00:10.914Z,66.20
2018-09-23T08:01:13.056Z,66.20
2018-09-23T08:02:15.198Z,66.00
2018-09-23T08:03:17.414Z,66.20
2018-09-23T08:04:19.588Z,66.10
2018-09-23T08:05:21.699Z,66.10
2018-09-23T08:06:24.066Z,66.10
2018-09-23T08:07:26.211Z,65.80
2018-09-23T08:08:28.375Z,65.80
2018-09-23T08:09:30.509Z,66.10
2018-09-23T08:10:32.697Z,66.20
2018-09-23T08:11:34.862Z,66.40
2018-09-23T08:12:37.365Z,66.40
2018-09-23T08:13:39.555Z,66.50
2018-09-23T08:14:41.916Z,66.80
2018-09-23T08:15:43.761Z,66.90
2018-09-23T08:16:45.914Z,66.80
2018-09-23T08:17:48.074Z,66.80
2018-09-23T08:18:50.260Z,67.00
2018-09-23T08:19:52.593Z,66.80
2018-09-23T08:20:54.607Z,66.50
2018-09-23T08:21:56.745Z,66.80
2018-09-23T08:22:58.902Z,67.10
2018-09-23T08:24:01.084Z,67.40
2018-09-23T08:25:03.468Z,67.10
2018-09-23T08:26:05.582Z,67.50
2018-09-23T08:27:07.979Z,67.50
2018-09-23T08:28:10.130Z,67.50
2018-09-23T08:29:12.681Z,67.50
2018-09-23T08:30:14.907Z,67.40
2018-09-23T08:31:17.257Z,67.50
2018-09-23T08:32:19.428Z,67.50
2018-09-23T08:33:21.582Z,67.50
2018-09-23T08:34:24.046Z,67.50
2018-09-23T08:35:26.696Z,67.50
2018-09-23T08:36:28.949Z,67.60
2018-09-23T08:37:31.186Z,67.50
2018-09-23T08:38:33.293Z,67.50
2018-09-23T08:39:35.457Z,67.60
2018-09-23T08:40:37.628Z,67.60
2018-09-23T08:41:39.800Z,67.60
2018-09-23T08:42:41.986Z,67.60
2018-09-23T08:43:44.089Z,67.60
2018-09-23T08:44:46.277Z,67.70
2018-09-23T08:45:48.830Z,67.60
2018-09-23T08:46:50.993Z,67.80
2018-09-23T08:47:53.484Z,67.80
2018-09-23T08:48:55.874Z,67.50
2018-09-23T08:49:58.033Z,67.50
2018-09-23T08:51:00.166Z,67.30
2018-09-23T08:52:02.406Z,67.00
2018-09-23T08:53:04.859Z,67.10
2018-09-23T08:54:07.024Z,67.20
2018-09-23T08:55:09.277Z,67.20
2018-09-23T08:56:11.424Z,67.30
2018-09-23T08:57:13.647Z,67.80
2018-09-23T08:58:15.761Z,68.00
2018-09-23T08:59:18.281Z,68.10
2018-09-23T09:00:20.487Z,68.50
2018-09-23T09:01:22.649Z,68.90
2018-09-23T09:02:24.794Z,69.30
2018-09-23T09:03:26.918Z,69.30
2018-09-23T09:04:29.053Z,69.30
2018-09-23T09:05:31.222Z,69.90
2018-09-23T09:06:33.358Z,69.40
2018-09-23T09:07:35.692Z,69.50
2018-09-23T09:08:38.155Z,69.80
2018-09-23T09:09:40.282Z,69.90
2018-09-23T09:10:42.425Z,70.10
2018-09-23T09:11:44.636Z,70.10
2018-09-23T09:12:46.777Z,70.30
2018-09-23T09:13:49.166Z,70.00
2018-09-23T09:14:51.306Z,70.40
2018-09-23T09:15:53.428Z,70.30
2018-09-23T09:16:55.919Z,70.40
2018-09-23T09:17:58.079Z,70.70
2018-09-23T09:19:00.218Z,70.20
2018-09-23T09:20:02.366Z,70.70
2018-09-23T09:21:04.617Z,70.80
2018-09-23T09:22:06.781Z,70.60
2018-09-23T09:23:09.244Z,70.40
2018-09-23T09:24:11.385Z,70.30
2018-09-23T09:25:13.565Z,70.30
2018-09-23T09:26:15.719Z,70.10
2018-09-23T09:27:17.913Z,70.30
2018-09-23T09:28:20.059Z,70.00
2018-09-23T09:29:22.225Z,69.90
2018-09-23T09:30:24.387Z,69.80
2018-09-23T09:31:26.513Z,69.50
2018-09-23T09:32:28.666Z,69.70
2018-09-23T09:33:30.817Z,69.20
2018-09-23T09:34:32.966Z,68.80
2018-09-23T09:35:35.161Z,68.70
2018-09-23T09:36:37.302Z,68.40
2018-09-23T09:37:39.452Z,68.50
2018-09-23T09:38:41.626Z,68.50
2018-09-23T09:39:43.832Z,68.50
2018-09-23T09:40:45.992Z,67.90
2018-09-23T09:41:48.196Z,67.90
2018-09-23T09:42:50.383Z,67.80
2018-09-23T09:43:52.594Z,67.60
2018-09-23T09:44:54.731Z,67.60
2018-09-23T09:45:56.921Z,67.90
2018-09-23T09:46:59.085Z,67.00
2018-09-23T09:48:01.250Z,67.10
2018-09-23T09:49:03.438Z,66.50
2018-09-23T09:50:05.809Z,66.50
2018-09-23T09:51:07.941Z,66.30
2018-09-23T09:52:10.573Z,66.10
2018-09-23T09:53:12.717Z,66.10
2018-09-23T09:54:14.855Z,65.90
2018-09-23T09:55:17.043Z,65.90
2018-09-23T09:56:19.172Z,65.80
2018-09-23T09:57:21.387Z,65.70
2018-09-23T09:58:23.521Z,65.50
2018-09-23T09:59:25.897Z,65.50
2018-09-23T10:00:32.431Z,65.40
2018-09-23T10:01:34.598Z,65.20
2018-09-23T10:02:37.062Z,65.20
2018-09-23T10:03:39.255Z,65.40
2018-09-23T10:04:41.341Z,65.20
2018-09-23T10:05:43.470Z,65.10
2018-09-23T10:06:45.950Z,65.10
2018-09-23T10:07:49.096Z,64.90
2018-09-23T10:08:51.238Z,64.50
2018-09-23T10:09:53.651Z,64.70
2018-09-23T10:10:55.817Z,64.50
2018-09-23T10:11:58.265Z,64.60
2018-09-23T10:13:00.378Z,64.60
2018-09-23T10:14:02.546Z,64.60
2018-09-23T10:15:04.958Z,64.60
2018-09-23T10:16:07.578Z,64.70
2018-09-23T10:17:10.538Z,64.30
2018-09-23T10:18:12.677Z,64.80
2018-09-23T10:19:15.054Z,64.10
2018-09-23T10:20:17.193Z,64.20
2018-09-23T10:21:19.370Z,63.70
2018-09-23T10:22:21.526Z,63.70
2018-09-23T10:23:23.767Z,63.90
2018-09-23T10:24:25.803Z,64.00
2018-09-23T10:25:27.940Z,63.60
2018-09-23T10:26:30.065Z,63.70
2018-09-23T10:27:32.197Z,63.50
2018-09-23T10:28:34.355Z,63.30
2018-09-23T10:29:36.488Z,63.10
2018-09-23T10:30:38.614Z,63.30
2018-09-23T10:31:40.804Z,63.20
2018-09-23T10:32:42.881Z,63.20
2018-09-23T10:33:44.988Z,63.20
2018-09-23T10:34:47.129Z,62.90
2018-09-23T10:35:49.273Z,62.90
2018-09-23T10:36:51.437Z,62.50
2018-09-23T10:37:53.549Z,62.50
2018-09-23T10:38:55.715Z,62.50
2018-09-23T10:39:58.111Z,62.40
2018-09-23T10:41:00.418Z,62.20
2018-09-23T10:42:02.559Z,62.30
2018-09-23T10:43:04.711Z,62.00
2018-09-23T10:44:06.941Z,62.20
2018-09-23T10:45:09.113Z,62.20
2018-09-23T10:46:11.698Z,62.10
2018-09-23T10:47:13.856Z,61.90
2018-09-23T10:48:15.993Z,62.00
2018-09-23T10:49:18.181Z,61.90
2018-09-23T10:50:20.309Z,62.00
2018-09-23T10:51:22.482Z,61.90
2018-09-23T10:52:24.617Z,62.20
2018-09-23T10:53:26.965Z,61.90
2018-09-23T10:54:29.078Z,61.50
2018-09-23T10:55:31.230Z,61.60
2018-09-23T10:56:33.386Z,61.50
2018-09-23T10:57:35.517Z,61.00
2018-09-23T10:58:37.881Z,61.20
2018-09-23T10:59:40.115Z,61.10
2018-09-23T11:00:42.281Z,61.40
2018-09-23T11:01:44.461Z,60.70
2018-09-23T11:02:46.580Z,60.70
2018-09-23T11:03:49.324Z,60.70
2018-09-23T11:04:51.448Z,60.70
2018-09-23T11:05:53.599Z,60.70
2018-09-23T11:06:55.789Z,60.70
2018-09-23T11:07:57.939Z,60.70
2018-09-23T11:09:00.121Z,60.80
2018-09-23T11:10:02.252Z,60.80
2018-09-23T11:11:04.541Z,60.60
2018-09-23T11:12:06.678Z,60.00
2018-09-23T11:13:08.821Z,60.20
2018-09-23T11:14:10.942Z,60.30
2018-09-23T11:15:13.310Z,60.30
2018-09-23T11:16:15.451Z,61.20
2018-09-23T11:17:17.652Z,59.70
2018-09-23T11:18:20.038Z,60.00
2018-09-23T11:19:22.479Z,59.40
2018-09-23T11:20:24.921Z,59.50
2018-09-23T11:21:27.107Z,59.10
2018-09-23T11:22:29.267Z,59.30
2018-09-23T11:23:31.699Z,59.30
2018-09-23T11:24:33.838Z,59.10
2018-09-23T11:25:36.001Z,58.70
2018-09-23T11:26:38.154Z,58.90
2018-09-23T11:27:40.505Z,58.80
2018-09-23T11:28:42.649Z,58.70
2018-09-23T11:29:44.789Z,58.60
2018-09-23T11:30:46.947Z,58.60
2018-09-23T11:31:49.088Z,58.40
2018-09-23T11:32:51.568Z,58.20
2018-09-23T11:33:53.737Z,58.00
2018-09-23T11:34:55.876Z,58.20
2018-09-23T11:35:58.017Z,58.40
2018-09-23T11:37:00.401Z,58.20
2018-09-23T11:38:02.556Z,58.40
2018-09-23T11:39:07.581Z,57.90
2018-09-23T11:40:09.745Z,58.40
2018-09-23T11:41:11.877Z,58.20
2018-09-23T11:42:14.032Z,58.30
2018-09-23T11:43:16.505Z,58.50
2018-09-23T11:44:18.685Z,58.30
2018-09-23T11:45:21.142Z,58.60
2018-09-23T11:46:23.303Z,58.50
2018-09-23T11:47:25.493Z,58.60
2018-09-23T11:48:27.681Z,58.30
2018-09-23T11:49:29.847Z,58.30
2018-09-23T11:50:32.009Z,58.50
2018-09-23T11:51:34.206Z,58.20
2018-09-23T11:52:36.368Z,58.20
2018-09-23T11:53:38.501Z,58.20
2018-09-23T11:54:40.657Z,58.30
2018-09-23T11:55:42.789Z,58.10
2018-09-23T11:56:44.940Z,58.10
2018-09-23T11:57:47.107Z,58.00
2018-09-23T11:58:49.327Z,58.00
2018-09-23T11:59:51.697Z,58.00
2018-09-23T12:00:53.843Z,58.70
2018-09-23T12:01:57.864Z,57.80
2018-09-23T12:03:00.091Z,57.80
2018-09-23T12:04:02.249Z,58.00
2018-09-23T12:05:04.421Z,58.00
2018-09-23T12:06:06.586Z,57.80
2018-09-23T12:07:08.700Z,58.00
2018-09-23T12:08:11.288Z,57.90
2018-09-23T12:09:13.460Z,58.10
2018-09-23T12:10:15.931Z,58.10
2018-09-23T12:11:18.309Z,58.00
2018-09-23T12:12:20.542Z,57.90
2018-09-23T12:13:22.766Z,58.10
2018-09-23T12:14:24.985Z,58.00
2018-09-23T12:15:27.499Z,58.00
2018-09-23T12:16:29.610Z,57.90
2018-09-23T12:17:31.811Z,57.80
2018-09-23T12:18:34.231Z,57.80
2018-09-23T12:19:36.446Z,57.50
2018-09-23T12:20:38.589Z,57.50
2018-09-23T12:21:40.794Z,57.50
2018-09-23T12:22:42.941Z,57.70
2018-09-23T12:23:45.097Z,57.50
2018-09-23T12:24:47.265Z,57.50
2018-09-23T12:25:49.554Z,57.80
2018-09-23T12:26:51.664Z,57.80
2018-09-23T12:27:53.790Z,58.00
2018-09-23T12:28:55.993Z,57.80
2018-09-23T12:29:58.151Z,58.10
2018-09-23T12:31:00.306Z,58.10
2018-09-23T12:32:02.463Z,58.00
2018-09-23T12:33:05.003Z,58.00
2018-09-23T12:34:07.173Z,57.70
2018-09-23T12:35:09.293Z,57.80
2018-09-23T12:36:11.411Z,57.70
2018-09-23T12:37:13.574Z,57.70
2018-09-23T12:38:15.774Z,58.00
2018-09-23T12:39:17.906Z,58.20
2018-09-23T12:40:20.095Z,58.20
2018-09-23T12:41:22.562Z,58.10
2018-09-23T12:42:24.689Z,57.50
2018-09-23T12:43:26.878Z,57.50
2018-09-23T12:44:29.038Z,57.60
2018-09-23T12:45:31.181Z,57.60
2018-09-23T12:46:33.656Z,57.70
2018-09-23T12:47:35.833Z,57.10
2018-09-23T12:48:37.989Z,57.20
2018-09-23T12:49:40.129Z,56.80
2018-09-23T12:50:42.340Z,56.70
2018-09-23T12:51:44.496Z,56.80
2018-09-23T12:52:46.676Z,56.60
2018-09-23T12:53:49.085Z,56.70
2018-09-23T12:54:51.240Z,56.50
2018-09-23T12:55:53.388Z,56.50
2018-09-23T12:56:55.530Z,56.50
2018-09-23T12:57:57.662Z,56.80
2018-09-23T12:58:59.805Z,57.10
2018-09-23T13:00:01.950Z,56.90
2018-09-23T13:01:04.166Z,56.50
2018-09-23T13:02:06.622Z,56.10
2018-09-23T13:03:08.755Z,56.50
2018-09-23T13:04:10.918Z,56.50
2018-09-23T13:05:13.070Z,56.50
2018-09-23T13:06:15.202Z,56.40
2018-09-23T13:07:17.338Z,56.30
2018-09-23T13:08:19.473Z,55.80
2018-09-23T13:09:22.106Z,55.40
2018-09-23T13:10:24.297Z,55.20
2018-09-23T13:11:26.488Z,55.40
2018-09-23T13:12:28.743Z,55.20
2018-09-23T13:13:30.874Z,55.30
2018-09-23T13:14:33.037Z,55.40
2018-09-23T13:15:35.432Z,55.00
2018-09-23T13:16:37.578Z,55.30
2018-09-23T13:17:39.732Z,55.20
2018-09-23T13:19:46.204Z,54.70
2018-09-23T13:20:48.360Z,54.80
2018-09-23T13:21:50.805Z,54.50
2018-09-23T13:22:52.937Z,54.50